sensor_id;sensor_type;location;lat;lon;timestamp;P1;durP1;ratioP1;P2;durP2;ratioP2
66256;SDS011;53049;43.446;3.698;2024-02-23T00:01:39;5.65;;;1.85;;
66256;SDS011;53049;43.446;3.698;2024-02-23T00:04:04;9.18;;;2.53;;
66256;SDS011;53049;43.446;3.698;2024-02-23T00:06:32;8.32;;;2.30;;
66256;SDS011;53049;43.446;3.698;2024-02-23T00:08:59;9.32;;;2.38;;
66256;SDS011;53049;43.446;3.698;2024-02-23T00:11:24;9.07;;;2.33;;
66256;SDS011;53049;43.446;3.698;2024-02-23T00:13:50;9.75;;;2.63;;
66256;SDS011;53049;43.446;3.698;2024-02-23T00:16:16;8.43;;;2.17;;
66256;SDS011;53049;43.446;3.698;2024-02-23T00:18:41;10.27;;;2.28;;
66256;SDS011;53049;43.446;3.698;2024-02-23T00:21:07;11.88;;;2.40;;
66256;SDS011;53049;43.446;3.698;2024-02-23T00:23:33;9.60;;;2.58;;
66256;SDS011;53049;43.446;3.698;2024-02-23T00:25:59;12.52;;;2.30;;
66256;SDS011;53049;43.446;3.698;2024-02-23T00:28:24;9.43;;;2.58;;
66256;SDS011;53049;43.446;3.698;2024-02-23T00:30:50;9.82;;;2.63;;
66256;SDS011;53049;43.446;3.698;2024-02-23T00:33:16;7.60;;;2.03;;
66256;SDS011;53049;43.446;3.698;2024-02-23T00:35:41;8.93;;;2.35;;
66256;SDS011;53049;43.446;3.698;2024-02-23T00:38:07;13.30;;;2.45;;
66256;SDS011;53049;43.446;3.698;2024-02-23T00:40:33;6.43;;;2.25;;
66256;SDS011;53049;43.446;3.698;2024-02-23T00:42:59;12.68;;;2.72;;
66256;SDS011;53049;43.446;3.698;2024-02-23T00:45:25;7.50;;;2.22;;
66256;SDS011;53049;43.446;3.698;2024-02-23T00:47:51;13.07;;;2.50;;
66256;SDS011;53049;43.446;3.698;2024-02-23T00:50:17;7.38;;;2.38;;
66256;SDS011;53049;43.446;3.698;2024-02-23T00:52:43;11.27;;;2.35;;
66256;SDS011;53049;43.446;3.698;2024-02-23T00:55:08;9.70;;;2.75;;
66256;SDS011;53049;43.446;3.698;2024-02-23T00:57:34;8.30;;;1.98;;
66256;SDS011;53049;43.446;3.698;2024-02-23T01:00:01;10.98;;;2.60;;
66256;SDS011;53049;43.446;3.698;2024-02-23T01:02:28;7.13;;;2.30;;
66256;SDS011;53049;43.446;3.698;2024-02-23T01:04:54;15.70;;;2.58;;
66256;SDS011;53049;43.446;3.698;2024-02-23T01:07:22;8.75;;;2.60;;
66256;SDS011;53049;43.446;3.698;2024-02-23T01:09:48;10.40;;;2.60;;
66256;SDS011;53049;43.446;3.698;2024-02-23T01:12:14;7.07;;;2.22;;
66256;SDS011;53049;43.446;3.698;2024-02-23T01:14:39;9.52;;;2.58;;
66256;SDS011;53049;43.446;3.698;2024-02-23T01:17:05;9.85;;;2.33;;
66256;SDS011;53049;43.446;3.698;2024-02-23T01:19:30;12.20;;;2.55;;
66256;SDS011;53049;43.446;3.698;2024-02-23T01:21:56;9.10;;;2.58;;
66256;SDS011;53049;43.446;3.698;2024-02-23T01:24:27;9.20;;;2.22;;
66256;SDS011;53049;43.446;3.698;2024-02-23T01:26:54;8.32;;;2.42;;
66256;SDS011;53049;43.446;3.698;2024-02-23T01:29:20;8.30;;;2.40;;
66256;SDS011;53049;43.446;3.698;2024-02-23T01:31:47;6.38;;;1.98;;
66256;SDS011;53049;43.446;3.698;2024-02-23T01:34:13;7.68;;;2.35;;
66256;SDS011;53049;43.446;3.698;2024-02-23T01:36:39;11.10;;;2.10;;
66256;SDS011;53049;43.446;3.698;2024-02-23T01:39:05;8.07;;;2.40;;
66256;SDS011;53049;43.446;3.698;2024-02-23T01:41:30;8.15;;;2.25;;
66256;SDS011;53049;43.446;3.698;2024-02-23T01:43:57;8.32;;;2.40;;
66256;SDS011;53049;43.446;3.698;2024-02-23T01:46:23;11.30;;;2.40;;
66256;SDS011;53049;43.446;3.698;2024-02-23T01:48:49;7.25;;;2.00;;
66256;SDS011;53049;43.446;3.698;2024-02-23T01:51:15;9.45;;;2.47;;
66256;SDS011;53049;43.446;3.698;2024-02-23T01:53:41;8.52;;;2.40;;
66256;SDS011;53049;43.446;3.698;2024-02-23T01:56:06;11.63;;;2.53;;
66256;SDS011;53049;43.446;3.698;2024-02-23T01:58:33;10.43;;;2.50;;
66256;SDS011;53049;43.446;3.698;2024-02-23T02:01:02;10.70;;;2.70;;
66256;SDS011;53049;43.446;3.698;2024-02-23T02:03:28;9.80;;;2.60;;
66256;SDS011;53049;43.446;3.698;2024-02-23T02:05:54;8.65;;;2.65;;
66256;SDS011;53049;43.446;3.698;2024-02-23T02:08:23;12.52;;;2.42;;
66256;SDS011;53049;43.446;3.698;2024-02-23T02:10:50;12.18;;;2.38;;
66256;SDS011;53049;43.446;3.698;2024-02-23T02:13:16;8.25;;;2.53;;
66256;SDS011;53049;43.446;3.698;2024-02-23T02:15:41;7.72;;;2.13;;
66256;SDS011;53049;43.446;3.698;2024-02-23T02:18:09;10.82;;;2.15;;
66256;SDS011;53049;43.446;3.698;2024-02-23T02:20:35;10.90;;;2.10;;
66256;SDS011;53049;43.446;3.698;2024-02-23T02:23:02;10.13;;;2.28;;
66256;SDS011;53049;43.446;3.698;2024-02-23T02:25:28;7.72;;;2.38;;
66256;SDS011;53049;43.446;3.698;2024-02-23T02:27:54;10.43;;;2.70;;
66256;SDS011;53049;43.446;3.698;2024-02-23T02:30:19;9.20;;;2.55;;
66256;SDS011;53049;43.446;3.698;2024-02-23T02:32:45;11.25;;;2.80;;
66256;SDS011;53049;43.446;3.698;2024-02-23T02:35:11;10.75;;;2.42;;
66256;SDS011;53049;43.446;3.698;2024-02-23T02:37:37;8.68;;;2.25;;
66256;SDS011;53049;43.446;3.698;2024-02-23T02:40:04;8.43;;;2.55;;
66256;SDS011;53049;43.446;3.698;2024-02-23T02:42:30;12.75;;;2.65;;
66256;SDS011;53049;43.446;3.698;2024-02-23T02:44:56;8.20;;;2.00;;
66256;SDS011;53049;43.446;3.698;2024-02-23T02:47:21;10.70;;;2.33;;
66256;SDS011;53049;43.446;3.698;2024-02-23T02:49:48;8.80;;;2.67;;
66256;SDS011;53049;43.446;3.698;2024-02-23T02:52:14;7.70;;;2.03;;
66256;SDS011;53049;43.446;3.698;2024-02-23T02:54:39;10.85;;;2.47;;
66256;SDS011;53049;43.446;3.698;2024-02-23T02:57:05;9.25;;;2.50;;
66256;SDS011;53049;43.446;3.698;2024-02-23T02:59:33;7.80;;;2.30;;
66256;SDS011;53049;43.446;3.698;2024-02-23T03:02:00;8.45;;;2.58;;
66256;SDS011;53049;43.446;3.698;2024-02-23T03:04:26;7.97;;;2.15;;
66256;SDS011;53049;43.446;3.698;2024-02-23T03:06:51;12.77;;;2.88;;
66256;SDS011;53049;43.446;3.698;2024-02-23T03:09:17;10.25;;;2.67;;
66256;SDS011;53049;43.446;3.698;2024-02-23T03:11:43;11.93;;;2.83;;
66256;SDS011;53049;43.446;3.698;2024-02-23T03:14:09;12.52;;;3.10;;
66256;SDS011;53049;43.446;3.698;2024-02-23T03:16:35;9.88;;;2.50;;
66256;SDS011;53049;43.446;3.698;2024-02-23T03:19:02;7.75;;;2.55;;
66256;SDS011;53049;43.446;3.698;2024-02-23T03:21:28;9.07;;;2.50;;
66256;SDS011;53049;43.446;3.698;2024-02-23T03:23:54;8.48;;;2.20;;
66256;SDS011;53049;43.446;3.698;2024-02-23T03:26:20;11.43;;;3.00;;
66256;SDS011;53049;43.446;3.698;2024-02-23T03:28:45;9.57;;;2.50;;
66256;SDS011;53049;43.446;3.698;2024-02-23T03:31:11;8.70;;;2.45;;
66256;SDS011;53049;43.446;3.698;2024-02-23T03:33:37;7.55;;;2.45;;
66256;SDS011;53049;43.446;3.698;2024-02-23T03:36:03;9.07;;;2.65;;
66256;SDS011;53049;43.446;3.698;2024-02-23T03:38:29;8.60;;;2.50;;
66256;SDS011;53049;43.446;3.698;2024-02-23T03:40:55;14.98;;;2.90;;
66256;SDS011;53049;43.446;3.698;2024-02-23T03:43:21;10.10;;;2.50;;
66256;SDS011;53049;43.446;3.698;2024-02-23T03:45:47;8.73;;;2.40;;
66256;SDS011;53049;43.446;3.698;2024-02-23T03:48:12;8.68;;;2.20;;
66256;SDS011;53049;43.446;3.698;2024-02-23T03:50:38;10.07;;;2.50;;
66256;SDS011;53049;43.446;3.698;2024-02-23T03:53:04;11.77;;;2.33;;
66256;SDS011;53049;43.446;3.698;2024-02-23T03:55:29;11.10;;;2.72;;
66256;SDS011;53049;43.446;3.698;2024-02-23T03:57:55;8.75;;;2.92;;
66256;SDS011;53049;43.446;3.698;2024-02-23T04:00:21;10.10;;;2.40;;
66256;SDS011;53049;43.446;3.698;2024-02-23T04:02:48;10.10;;;2.47;;
66256;SDS011;53049;43.446;3.698;2024-02-23T04:05:14;9.95;;;2.78;;
66256;SDS011;53049;43.446;3.698;2024-02-23T04:07:40;9.20;;;2.58;;
66256;SDS011;53049;43.446;3.698;2024-02-23T04:10:05;9.23;;;2.53;;
66256;SDS011;53049;43.446;3.698;2024-02-23T04:12:32;7.45;;;2.40;;
66256;SDS011;53049;43.446;3.698;2024-02-23T04:14:57;9.10;;;2.60;;
66256;SDS011;53049;43.446;3.698;2024-02-23T04:17:23;10.90;;;2.40;;
66256;SDS011;53049;43.446;3.698;2024-02-23T04:19:48;9.95;;;2.42;;
66256;SDS011;53049;43.446;3.698;2024-02-23T04:22:14;7.97;;;2.53;;
66256;SDS011;53049;43.446;3.698;2024-02-23T04:24:40;9.93;;;2.80;;
66256;SDS011;53049;43.446;3.698;2024-02-23T04:27:07;6.93;;;2.90;;
66256;SDS011;53049;43.446;3.698;2024-02-23T04:29:33;11.43;;;2.83;;
66256;SDS011;53049;43.446;3.698;2024-02-23T04:31:59;12.38;;;2.60;;
66256;SDS011;53049;43.446;3.698;2024-02-23T04:34:28;9.98;;;2.75;;
66256;SDS011;53049;43.446;3.698;2024-02-23T04:36:54;8.82;;;2.70;;
66256;SDS011;53049;43.446;3.698;2024-02-23T04:39:20;10.57;;;2.92;;
66256;SDS011;53049;43.446;3.698;2024-02-23T04:41:47;7.10;;;2.38;;
66256;SDS011;53049;43.446;3.698;2024-02-23T04:44:13;7.70;;;2.22;;
66256;SDS011;53049;43.446;3.698;2024-02-23T04:46:38;12.15;;;2.70;;
66256;SDS011;53049;43.446;3.698;2024-02-23T04:49:04;11.13;;;2.95;;
66256;SDS011;53049;43.446;3.698;2024-02-23T04:51:30;9.57;;;2.50;;
66256;SDS011;53049;43.446;3.698;2024-02-23T04:53:55;11.68;;;2.83;;
66256;SDS011;53049;43.446;3.698;2024-02-23T04:56:21;9.93;;;2.60;;
66256;SDS011;53049;43.446;3.698;2024-02-23T04:58:46;11.07;;;2.83;;
66256;SDS011;53049;43.446;3.698;2024-02-23T05:01:12;7.55;;;2.50;;
66256;SDS011;53049;43.446;3.698;2024-02-23T05:03:38;10.38;;;2.55;;
66256;SDS011;53049;43.446;3.698;2024-02-23T05:06:04;12.13;;;3.08;;
66256;SDS011;53049;43.446;3.698;2024-02-23T05:08:30;8.50;;;3.33;;
66256;SDS011;53049;43.446;3.698;2024-02-23T05:10:56;11.98;;;3.80;;
66256;SDS011;53049;43.446;3.698;2024-02-23T05:13:22;10.68;;;2.75;;
66256;SDS011;53049;43.446;3.698;2024-02-23T05:15:48;10.43;;;2.53;;
66256;SDS011;53049;43.446;3.698;2024-02-23T05:18:14;10.52;;;2.60;;
66256;SDS011;53049;43.446;3.698;2024-02-23T05:20:40;12.63;;;2.50;;
66256;SDS011;53049;43.446;3.698;2024-02-23T05:23:06;10.90;;;2.60;;
66256;SDS011;53049;43.446;3.698;2024-02-23T05:25:32;10.60;;;2.75;;
66256;SDS011;53049;43.446;3.698;2024-02-23T05:27:57;13.80;;;3.33;;
66256;SDS011;53049;43.446;3.698;2024-02-23T05:30:23;12.75;;;2.65;;
66256;SDS011;53049;43.446;3.698;2024-02-23T05:32:49;14.55;;;2.90;;
66256;SDS011;53049;43.446;3.698;2024-02-23T05:35:15;10.63;;;3.00;;
66256;SDS011;53049;43.446;3.698;2024-02-23T05:37:41;9.55;;;2.65;;
66256;SDS011;53049;43.446;3.698;2024-02-23T05:40:07;9.48;;;2.38;;
66256;SDS011;53049;43.446;3.698;2024-02-23T05:42:35;11.90;;;2.75;;
66256;SDS011;53049;43.446;3.698;2024-02-23T05:45:02;14.18;;;2.90;;
66256;SDS011;53049;43.446;3.698;2024-02-23T05:47:29;9.68;;;2.70;;
66256;SDS011;53049;43.446;3.698;2024-02-23T05:49:55;12.15;;;3.00;;
66256;SDS011;53049;43.446;3.698;2024-02-23T05:52:21;16.50;;;3.72;;
66256;SDS011;53049;43.446;3.698;2024-02-23T05:54:47;14.50;;;2.85;;
66256;SDS011;53049;43.446;3.698;2024-02-23T05:57:12;8.25;;;2.67;;
66256;SDS011;53049;43.446;3.698;2024-02-23T05:59:38;13.90;;;2.80;;
66256;SDS011;53049;43.446;3.698;2024-02-23T06:02:04;10.20;;;2.75;;
66256;SDS011;53049;43.446;3.698;2024-02-23T06:04:30;12.23;;;3.05;;
66256;SDS011;53049;43.446;3.698;2024-02-23T06:06:55;10.05;;;2.50;;
66256;SDS011;53049;43.446;3.698;2024-02-23T06:09:21;9.20;;;2.50;;
66256;SDS011;53049;43.446;3.698;2024-02-23T06:11:47;11.38;;;2.85;;
66256;SDS011;53049;43.446;3.698;2024-02-23T06:14:13;9.70;;;2.60;;
66256;SDS011;53049;43.446;3.698;2024-02-23T06:16:39;11.18;;;3.03;;
66256;SDS011;53049;43.446;3.698;2024-02-23T06:19:05;11.52;;;2.92;;
66256;SDS011;53049;43.446;3.698;2024-02-23T06:21:31;13.63;;;2.92;;
66256;SDS011;53049;43.446;3.698;2024-02-23T06:23:57;10.35;;;2.88;;
66256;SDS011;53049;43.446;3.698;2024-02-23T06:26:23;14.13;;;2.90;;
66256;SDS011;53049;43.446;3.698;2024-02-23T06:28:48;10.55;;;3.25;;
66256;SDS011;53049;43.446;3.698;2024-02-23T06:31:14;16.80;;;4.03;;
66256;SDS011;53049;43.446;3.698;2024-02-23T06:33:40;14.73;;;3.75;;
66256;SDS011;53049;43.446;3.698;2024-02-23T06:36:06;11.68;;;3.40;;
66256;SDS011;53049;43.446;3.698;2024-02-23T06:38:32;9.95;;;3.38;;
66256;SDS011;53049;43.446;3.698;2024-02-23T06:40:58;14.23;;;3.20;;
66256;SDS011;53049;43.446;3.698;2024-02-23T06:43:24;11.32;;;2.80;;
66256;SDS011;53049;43.446;3.698;2024-02-23T06:45:50;14.35;;;3.80;;
66256;SDS011;53049;43.446;3.698;2024-02-23T06:48:16;12.07;;;3.22;;
66256;SDS011;53049;43.446;3.698;2024-02-23T06:50:41;11.88;;;2.95;;
66256;SDS011;53049;43.446;3.698;2024-02-23T06:53:07;12.88;;;3.40;;
66256;SDS011;53049;43.446;3.698;2024-02-23T06:55:34;10.50;;;2.53;;
66256;SDS011;53049;43.446;3.698;2024-02-23T06:58:00;11.27;;;2.78;;
66256;SDS011;53049;43.446;3.698;2024-02-23T07:00:26;7.55;;;2.20;;
66256;SDS011;53049;43.446;3.698;2024-02-23T07:02:51;11.45;;;2.83;;
66256;SDS011;53049;43.446;3.698;2024-02-23T07:05:17;9.13;;;2.22;;
66256;SDS011;53049;43.446;3.698;2024-02-23T07:07:43;12.85;;;2.50;;
66256;SDS011;53049;43.446;3.698;2024-02-23T07:10:09;9.20;;;2.65;;
66256;SDS011;53049;43.446;3.698;2024-02-23T07:12:35;8.65;;;2.78;;
66256;SDS011;53049;43.446;3.698;2024-02-23T07:15:01;8.32;;;2.67;;
66256;SDS011;53049;43.446;3.698;2024-02-23T07:17:27;11.75;;;2.85;;
66256;SDS011;53049;43.446;3.698;2024-02-23T07:19:53;7.68;;;2.47;;
66256;SDS011;53049;43.446;3.698;2024-02-23T07:22:21;8.45;;;2.67;;
66256;SDS011;53049;43.446;3.698;2024-02-23T07:24:46;7.07;;;2.25;;
66256;SDS011;53049;43.446;3.698;2024-02-23T07:27:12;10.77;;;2.55;;
66256;SDS011;53049;43.446;3.698;2024-02-23T07:29:38;8.40;;;2.35;;
66256;SDS011;53049;43.446;3.698;2024-02-23T07:32:04;8.70;;;2.55;;
66256;SDS011;53049;43.446;3.698;2024-02-23T07:34:30;14.20;;;2.88;;
66256;SDS011;53049;43.446;3.698;2024-02-23T07:36:56;8.52;;;3.08;;
66256;SDS011;53049;43.446;3.698;2024-02-23T07:39:22;11.05;;;3.00;;
66256;SDS011;53049;43.446;3.698;2024-02-23T07:41:48;11.77;;;3.20;;
66256;SDS011;53049;43.446;3.698;2024-02-23T07:44:14;13.82;;;2.95;;
66256;SDS011;53049;43.446;3.698;2024-02-23T07:46:39;16.45;;;3.40;;
66256;SDS011;53049;43.446;3.698;2024-02-23T07:49:06;9.25;;;2.58;;
66256;SDS011;53049;43.446;3.698;2024-02-23T07:51:32;8.27;;;2.60;;
66256;SDS011;53049;43.446;3.698;2024-02-23T07:53:58;12.18;;;3.33;;
66256;SDS011;53049;43.446;3.698;2024-02-23T07:56:23;14.82;;;3.35;;
66256;SDS011;53049;43.446;3.698;2024-02-23T07:58:49;13.20;;;3.08;;
66256;SDS011;53049;43.446;3.698;2024-02-23T08:01:15;7.88;;;2.58;;
66256;SDS011;53049;43.446;3.698;2024-02-23T08:03:41;7.97;;;2.25;;
66256;SDS011;53049;43.446;3.698;2024-02-23T08:06:06;10.43;;;2.50;;
66256;SDS011;53049;43.446;3.698;2024-02-23T08:08:32;8.50;;;2.58;;
66256;SDS011;53049;43.446;3.698;2024-02-23T08:11:03;9.52;;;1.90;;
66256;SDS011;53049;43.446;3.698;2024-02-23T08:13:28;8.48;;;2.45;;
66256;SDS011;53049;43.446;3.698;2024-02-23T08:15:54;12.43;;;2.20;;
66256;SDS011;53049;43.446;3.698;2024-02-23T08:18:20;5.32;;;1.80;;
66256;SDS011;53049;43.446;3.698;2024-02-23T08:20:47;9.25;;;2.00;;
66256;SDS011;53049;43.446;3.698;2024-02-23T08:23:13;9.30;;;2.10;;
66256;SDS011;53049;43.446;3.698;2024-02-23T08:25:39;6.53;;;1.90;;
66256;SDS011;53049;43.446;3.698;2024-02-23T08:28:06;8.05;;;1.75;;
66256;SDS011;53049;43.446;3.698;2024-02-23T08:30:32;10.02;;;1.90;;
66256;SDS011;53049;43.446;3.698;2024-02-23T08:32:58;7.03;;;1.70;;
66256;SDS011;53049;43.446;3.698;2024-02-23T08:35:24;6.78;;;2.30;;
66256;SDS011;53049;43.446;3.698;2024-02-23T08:37:50;5.57;;;1.58;;
66256;SDS011;53049;43.446;3.698;2024-02-23T08:40:16;6.32;;;1.70;;
66256;SDS011;53049;43.446;3.698;2024-02-23T08:42:41;4.80;;;1.40;;
66256;SDS011;53049;43.446;3.698;2024-02-23T08:45:07;6.65;;;1.55;;
66256;SDS011;53049;43.446;3.698;2024-02-23T08:47:34;5.53;;;1.63;;
66256;SDS011;53049;43.446;3.698;2024-02-23T08:50:01;7.55;;;1.60;;
66256;SDS011;53049;43.446;3.698;2024-02-23T08:52:27;3.08;;;1.30;;
66256;SDS011;53049;43.446;3.698;2024-02-23T08:54:53;4.78;;;1.60;;
66256;SDS011;53049;43.446;3.698;2024-02-23T08:57:18;5.28;;;1.70;;
66256;SDS011;53049;43.446;3.698;2024-02-23T08:59:45;6.28;;;2.30;;
66256;SDS011;53049;43.446;3.698;2024-02-23T09:02:11;5.13;;;2.00;;
66256;SDS011;53049;43.446;3.698;2024-02-23T09:04:37;5.65;;;2.00;;
66256;SDS011;53049;43.446;3.698;2024-02-23T09:07:03;5.90;;;1.67;;
66256;SDS011;53049;43.446;3.698;2024-02-23T09:09:29;4.53;;;1.60;;
66256;SDS011;53049;43.446;3.698;2024-02-23T09:11:55;5.70;;;1.65;;
66256;SDS011;53049;43.446;3.698;2024-02-23T09:14:20;7.88;;;1.60;;
66256;SDS011;53049;43.446;3.698;2024-02-23T09:16:46;5.72;;;1.60;;
66256;SDS011;53049;43.446;3.698;2024-02-23T09:19:15;6.93;;;1.92;;
66256;SDS011;53049;43.446;3.698;2024-02-23T09:21:42;6.47;;;1.70;;
66256;SDS011;53049;43.446;3.698;2024-02-23T09:24:07;4.15;;;1.40;;
66256;SDS011;53049;43.446;3.698;2024-02-23T09:26:33;8.73;;;2.20;;
66256;SDS011;53049;43.446;3.698;2024-02-23T09:28:59;3.25;;;1.60;;
66256;SDS011;53049;43.446;3.698;2024-02-23T09:31:24;6.93;;;1.63;;
66256;SDS011;53049;43.446;3.698;2024-02-23T09:33:51;6.47;;;1.80;;
66256;SDS011;53049;43.446;3.698;2024-02-23T09:36:17;5.30;;;1.50;;
66256;SDS011;53049;43.446;3.698;2024-02-23T09:38:43;3.97;;;1.55;;
66256;SDS011;53049;43.446;3.698;2024-02-23T09:41:11;5.82;;;1.90;;
66256;SDS011;53049;43.446;3.698;2024-02-23T09:43:46;4.40;;;1.50;;
66256;SDS011;53049;43.446;3.698;2024-02-23T09:46:14;5.10;;;1.80;;
66256;SDS011;53049;43.446;3.698;2024-02-23T09:48:41;5.93;;;1.65;;
66256;SDS011;53049;43.446;3.698;2024-02-23T09:51:14;5.63;;;1.60;;
66256;SDS011;53049;43.446;3.698;2024-02-23T09:53:41;4.63;;;1.52;;
66256;SDS011;53049;43.446;3.698;2024-02-23T09:56:10;7.07;;;2.13;;
66256;SDS011;53049;43.446;3.698;2024-02-23T09:58:36;4.68;;;1.50;;
66256;SDS011;53049;43.446;3.698;2024-02-23T10:01:02;6.10;;;1.60;;
66256;SDS011;53049;43.446;3.698;2024-02-23T10:03:29;6.07;;;1.80;;
66256;SDS011;53049;43.446;3.698;2024-02-23T10:05:58;6.65;;;1.65;;
66256;SDS011;53049;43.446;3.698;2024-02-23T10:08:27;2.55;;;1.00;;
66256;SDS011;53049;43.446;3.698;2024-02-23T10:10:54;4.57;;;1.45;;
66256;SDS011;53049;43.446;3.698;2024-02-23T10:13:21;8.25;;;1.45;;
66256;SDS011;53049;43.446;3.698;2024-02-23T10:15:51;5.35;;;1.42;;
66256;SDS011;53049;43.446;3.698;2024-02-23T10:18:17;3.80;;;1.50;;
66256;SDS011;53049;43.446;3.698;2024-02-23T10:20:43;3.67;;;1.30;;
66256;SDS011;53049;43.446;3.698;2024-02-23T10:23:09;5.07;;;1.25;;
66256;SDS011;53049;43.446;3.698;2024-02-23T10:25:35;1.65;;;1.10;;
66256;SDS011;53049;43.446;3.698;2024-02-23T10:28:05;2.72;;;1.20;;
66256;SDS011;53049;43.446;3.698;2024-02-23T10:30:31;3.75;;;1.20;;
66256;SDS011;53049;43.446;3.698;2024-02-23T10:32:57;1.65;;;0.90;;
66256;SDS011;53049;43.446;3.698;2024-02-23T10:35:24;3.92;;;1.13;;
66256;SDS011;53049;43.446;3.698;2024-02-23T10:37:52;3.25;;;1.15;;
66256;SDS011;53049;43.446;3.698;2024-02-23T10:40:20;4.18;;;1.20;;
66256;SDS011;53049;43.446;3.698;2024-02-23T10:42:47;2.95;;;1.10;;
66256;SDS011;53049;43.446;3.698;2024-02-23T10:45:18;1.77;;;1.05;;
66256;SDS011;53049;43.446;3.698;2024-02-23T10:47:46;1.48;;;0.90;;
66256;SDS011;53049;43.446;3.698;2024-02-23T10:50:13;2.22;;;0.80;;
66256;SDS011;53049;43.446;3.698;2024-02-23T10:52:42;1.77;;;0.60;;
66256;SDS011;53049;43.446;3.698;2024-02-23T10:55:08;2.63;;;1.20;;
66256;SDS011;53049;43.446;3.698;2024-02-23T10:57:35;1.73;;;0.70;;
66256;SDS011;53049;43.446;3.698;2024-02-23T11:00:02;0.90;;;0.60;;
66256;SDS011;53049;43.446;3.698;2024-02-23T11:02:31;1.70;;;0.63;;
66256;SDS011;53049;43.446;3.698;2024-02-23T11:05:00;1.98;;;0.80;;
66256;SDS011;53049;43.446;3.698;2024-02-23T11:07:29;2.83;;;0.55;;
66256;SDS011;53049;43.446;3.698;2024-02-23T11:09:58;2.47;;;0.77;;
66256;SDS011;53049;43.446;3.698;2024-02-23T11:12:25;2.25;;;0.70;;
66256;SDS011;53049;43.446;3.698;2024-02-23T11:14:57;2.00;;;0.95;;
66256;SDS011;53049;43.446;3.698;2024-02-23T11:17:26;4.35;;;1.20;;
66256;SDS011;53049;43.446;3.698;2024-02-23T11:19:54;1.50;;;0.82;;
66256;SDS011;53049;43.446;3.698;2024-02-23T11:22:24;2.42;;;1.00;;
66256;SDS011;53049;43.446;3.698;2024-02-23T11:24:51;1.15;;;0.70;;
66256;SDS011;53049;43.446;3.698;2024-02-23T11:27:17;1.05;;;0.85;;
66256;SDS011;53049;43.446;3.698;2024-02-23T11:29:45;1.40;;;0.80;;
66256;SDS011;53049;43.446;3.698;2024-02-23T11:32:12;1.42;;;0.98;;
66256;SDS011;53049;43.446;3.698;2024-02-23T11:34:39;2.15;;;1.00;;
66256;SDS011;53049;43.446;3.698;2024-02-23T11:37:11;0.98;;;0.80;;
66256;SDS011;53049;43.446;3.698;2024-02-23T11:39:37;2.05;;;0.70;;
66256;SDS011;53049;43.446;3.698;2024-02-23T11:42:04;0.80;;;0.80;;
66256;SDS011;53049;43.446;3.698;2024-02-23T11:44:31;2.83;;;0.88;;
66256;SDS011;53049;43.446;3.698;2024-02-23T11:46:57;1.55;;;0.90;;
66256;SDS011;53049;43.446;3.698;2024-02-23T11:49:27;2.72;;;1.00;;
66256;SDS011;53049;43.446;3.698;2024-02-23T11:51:54;1.08;;;0.80;;
66256;SDS011;53049;43.446;3.698;2024-02-23T11:54:20;3.28;;;1.00;;
66256;SDS011;53049;43.446;3.698;2024-02-23T11:56:47;2.13;;;0.90;;
66256;SDS011;53049;43.446;3.698;2024-02-23T11:59:14;1.90;;;0.90;;
66256;SDS011;53049;43.446;3.698;2024-02-23T12:01:40;1.17;;;0.63;;
66256;SDS011;53049;43.446;3.698;2024-02-23T12:04:06;3.13;;;0.90;;
66256;SDS011;53049;43.446;3.698;2024-02-23T12:06:33;3.28;;;0.90;;
66256;SDS011;53049;43.446;3.698;2024-02-23T12:08:59;1.48;;;0.70;;
66256;SDS011;53049;43.446;3.698;2024-02-23T12:11:25;3.03;;;1.00;;
66256;SDS011;53049;43.446;3.698;2024-02-23T12:13:52;1.95;;;0.80;;
66256;SDS011;53049;43.446;3.698;2024-02-23T12:16:20;1.35;;;0.80;;
66256;SDS011;53049;43.446;3.698;2024-02-23T12:18:52;2.85;;;0.80;;
66256;SDS011;53049;43.446;3.698;2024-02-23T12:21:20;1.80;;;1.00;;
66256;SDS011;53049;43.446;3.698;2024-02-23T12:23:47;1.17;;;1.08;;
66256;SDS011;53049;43.446;3.698;2024-02-23T12:26:16;1.63;;;0.98;;
66256;SDS011;53049;43.446;3.698;2024-02-23T12:28:43;1.20;;;1.00;;
66256;SDS011;53049;43.446;3.698;2024-02-23T12:31:09;3.95;;;1.20;;
66256;SDS011;53049;43.446;3.698;2024-02-23T12:33:36;2.08;;;1.08;;
66256;SDS011;53049;43.446;3.698;2024-02-23T12:36:06;2.75;;;0.90;;
66256;SDS011;53049;43.446;3.698;2024-02-23T12:38:33;2.47;;;1.10;;
66256;SDS011;53049;43.446;3.698;2024-02-23T12:40:59;6.00;;;1.35;;
66256;SDS011;53049;43.446;3.698;2024-02-23T12:43:25;1.92;;;1.08;;
66256;SDS011;53049;43.446;3.698;2024-02-23T12:45:52;2.90;;;0.75;;
66256;SDS011;53049;43.446;3.698;2024-02-23T12:48:19;5.68;;;0.98;;
66256;SDS011;53049;43.446;3.698;2024-02-23T12:50:46;2.53;;;0.88;;
66256;SDS011;53049;43.446;3.698;2024-02-23T12:56:06;1.80;;;1.05;;
66256;SDS011;53049;43.446;3.698;2024-02-23T12:58:33;1.17;;;0.80;;
66256;SDS011;53049;43.446;3.698;2024-02-23T13:01:03;1.10;;;0.80;;
66256;SDS011;53049;43.446;3.698;2024-02-23T13:03:31;2.63;;;0.73;;
66256;SDS011;53049;43.446;3.698;2024-02-23T13:05:57;1.42;;;0.80;;
66256;SDS011;53049;43.446;3.698;2024-02-23T13:08:23;5.25;;;1.20;;
66256;SDS011;53049;43.446;3.698;2024-02-23T13:10:50;3.15;;;0.95;;
66256;SDS011;53049;43.446;3.698;2024-02-23T13:13:16;3.63;;;0.95;;
66256;SDS011;53049;43.446;3.698;2024-02-23T13:15:42;3.63;;;0.77;;
66256;SDS011;53049;43.446;3.698;2024-02-23T13:18:08;5.28;;;0.98;;
66256;SDS011;53049;43.446;3.698;2024-02-23T13:20:35;4.07;;;0.93;;
66256;SDS011;53049;43.446;3.698;2024-02-23T13:23:01;4.28;;;0.90;;
66256;SDS011;53049;43.446;3.698;2024-02-23T13:25:27;2.00;;;0.75;;
66256;SDS011;53049;43.446;3.698;2024-02-23T13:27:53;1.48;;;0.80;;
66256;SDS011;53049;43.446;3.698;2024-02-23T13:30:19;1.20;;;0.82;;
66256;SDS011;53049;43.446;3.698;2024-02-23T13:32:45;1.20;;;0.80;;
66256;SDS011;53049;43.446;3.698;2024-02-23T13:35:11;1.75;;;0.90;;
66256;SDS011;53049;43.446;3.698;2024-02-23T13:37:36;1.73;;;0.80;;
66256;SDS011;53049;43.446;3.698;2024-02-23T13:40:02;3.95;;;1.00;;
66256;SDS011;53049;43.446;3.698;2024-02-23T13:42:30;1.58;;;0.90;;
66256;SDS011;53049;43.446;3.698;2024-02-23T13:44:56;9.68;;;1.52;;
66256;SDS011;53049;43.446;3.698;2024-02-23T13:47:22;2.97;;;0.90;;
66256;SDS011;53049;43.446;3.698;2024-02-23T13:49:47;4.03;;;1.10;;
66256;SDS011;53049;43.446;3.698;2024-02-23T13:52:13;5.07;;;1.50;;
66256;SDS011;53049;43.446;3.698;2024-02-23T13:54:39;1.58;;;1.00;;
66256;SDS011;53049;43.446;3.698;2024-02-23T13:57:04;3.85;;;0.98;;
66256;SDS011;53049;43.446;3.698;2024-02-23T13:59:30;2.60;;;0.73;;
66256;SDS011;53049;43.446;3.698;2024-02-23T14:01:56;4.75;;;0.82;;
66256;SDS011;53049;43.446;3.698;2024-02-23T14:04:21;1.10;;;0.85;;
66256;SDS011;53049;43.446;3.698;2024-02-23T14:06:47;2.17;;;0.60;;
66256;SDS011;53049;43.446;3.698;2024-02-23T14:09:13;1.65;;;0.70;;
66256;SDS011;53049;43.446;3.698;2024-02-23T14:11:38;6.10;;;1.08;;
66256;SDS011;53049;43.446;3.698;2024-02-23T14:14:05;9.02;;;1.30;;
66256;SDS011;53049;43.446;3.698;2024-02-23T14:16:31;1.02;;;0.50;;
66256;SDS011;53049;43.446;3.698;2024-02-23T14:18:57;7.93;;;1.20;;
66256;SDS011;53049;43.446;3.698;2024-02-23T14:21:22;4.32;;;0.98;;
66256;SDS011;53049;43.446;3.698;2024-02-23T14:23:50;2.05;;;0.70;;
66256;SDS011;53049;43.446;3.698;2024-02-23T14:26:16;9.00;;;1.20;;
66256;SDS011;53049;43.446;3.698;2024-02-23T14:28:41;1.48;;;0.80;;
66256;SDS011;53049;43.446;3.698;2024-02-23T14:31:07;4.07;;;1.05;;
66256;SDS011;53049;43.446;3.698;2024-02-23T14:33:33;1.95;;;1.02;;
66256;SDS011;53049;43.446;3.698;2024-02-23T14:35:58;5.55;;;1.25;;
66256;SDS011;53049;43.446;3.698;2024-02-23T14:38:24;2.53;;;0.82;;
66256;SDS011;53049;43.446;3.698;2024-02-23T14:40:50;1.35;;;0.85;;